sensor_id;sensor_type;location;lat;lon;timestamp;P1;durP1;ratioP1;P2;durP2;ratioP2
7645;SDS011;3864;48.180;14.178;2023-04-24T00:00:12;3.42;;;2.30;;
7645;SDS011;3864;48.180;14.178;2023-04-24T00:02:40;4.18;;;2.67;;
7645;SDS011;3864;48.180;14.178;2023-04-24T00:05:11;3.80;;;2.67;;
7645;SDS011;3864;48.180;14.178;2023-04-24T00:07:38;4.05;;;3.00;;
7645;SDS011;3864;48.180;14.178;2023-04-24T00:10:08;5.07;;;3.35;;
7645;SDS011;3864;48.180;14.178;2023-04-24T00:12:35;5.07;;;3.03;;
7645;SDS011;3864;48.180;14.178;2023-04-24T00:15:02;3.92;;;2.78;;
7645;SDS011;3864;48.180;14.178;2023-04-24T00:19:55;4.82;;;2.80;;
7645;SDS011;3864;48.180;14.178;2023-04-24T00:22:23;3.67;;;3.00;;
7645;SDS011;3864;48.180;14.178;2023-04-24T00:24:50;4.10;;;2.85;;
7645;SDS011;3864;48.180;14.178;2023-04-24T00:27:19;4.45;;;2.65;;
7645;SDS011;3864;48.180;14.178;2023-04-24T00:29:45;4.13;;;2.60;;
7645;SDS011;3864;48.180;14.178;2023-04-24T00:32:12;3.70;;;2.60;;
7645;SDS011;3864;48.180;14.178;2023-04-24T00:34:39;6.10;;;2.58;;
7645;SDS011;3864;48.180;14.178;2023-04-24T00:37:06;3.50;;;2.28;;
7645;SDS011;3864;48.180;14.178;2023-04-24T00:39:33;5.70;;;2.92;;
7645;SDS011;3864;48.180;14.178;2023-04-24T00:42:00;4.65;;;2.70;;
7645;SDS011;3864;48.180;14.178;2023-04-24T00:44:29;3.60;;;2.70;;
7645;SDS011;3864;48.180;14.178;2023-04-24T00:46:56;3.67;;;2.53;;
7645;SDS011;3864;48.180;14.178;2023-04-24T00:49:23;4.05;;;2.33;;
7645;SDS011;3864;48.180;14.178;2023-04-24T00:51:50;3.60;;;2.45;;
7645;SDS011;3864;48.180;14.178;2023-04-24T00:54:17;5.80;;;2.60;;
7645;SDS011;3864;48.180;14.178;2023-04-24T00:56:44;3.22;;;2.30;;
7645;SDS011;3864;48.180;14.178;2023-04-24T00:59:10;4.18;;;2.45;;
7645;SDS011;3864;48.180;14.178;2023-04-24T01:01:39;3.92;;;2.45;;
7645;SDS011;3864;48.180;14.178;2023-04-24T01:04:07;4.32;;;2.60;;
7645;SDS011;3864;48.180;14.178;2023-04-24T01:06:35;4.45;;;2.47;;
7645;SDS011;3864;48.180;14.178;2023-04-24T01:09:02;3.30;;;2.28;;
7645;SDS011;3864;48.180;14.178;2023-04-24T01:13:55;3.58;;;2.20;;
7645;SDS011;3864;48.180;14.178;2023-04-24T01:16:23;4.22;;;2.53;;
7645;SDS011;3864;48.180;14.178;2023-04-24T01:18:52;3.63;;;2.70;;
7645;SDS011;3864;48.180;14.178;2023-04-24T01:21:19;3.80;;;2.60;;
7645;SDS011;3864;48.180;14.178;2023-04-24T01:23:48;5.20;;;2.97;;
7645;SDS011;3864;48.180;14.178;2023-04-24T01:26:15;3.20;;;2.20;;
7645;SDS011;3864;48.180;14.178;2023-04-24T01:28:42;4.68;;;2.50;;
7645;SDS011;3864;48.180;14.178;2023-04-24T01:31:09;4.85;;;2.58;;
7645;SDS011;3864;48.180;14.178;2023-04-24T01:33:36;5.35;;;2.90;;
7645;SDS011;3864;48.180;14.178;2023-04-24T01:36:03;5.30;;;3.10;;
7645;SDS011;3864;48.180;14.178;2023-04-24T01:38:30;4.28;;;2.80;;
7645;SDS011;3864;48.180;14.178;2023-04-24T01:40:58;4.25;;;2.47;;
7645;SDS011;3864;48.180;14.178;2023-04-24T01:43:26;3.28;;;2.55;;
7645;SDS011;3864;48.180;14.178;2023-04-24T01:45:53;3.40;;;2.40;;
7645;SDS011;3864;48.180;14.178;2023-04-24T01:48:20;4.47;;;2.55;;
7645;SDS011;3864;48.180;14.178;2023-04-24T01:50:46;4.38;;;2.20;;
7645;SDS011;3864;48.180;14.178;2023-04-24T01:53:13;3.88;;;2.30;;
7645;SDS011;3864;48.180;14.178;2023-04-24T01:55:40;3.60;;;2.40;;
7645;SDS011;3864;48.180;14.178;2023-04-24T01:58:08;4.10;;;2.10;;
7645;SDS011;3864;48.180;14.178;2023-04-24T02:00:35;3.58;;;2.20;;
7645;SDS011;3864;48.180;14.178;2023-04-24T02:03:02;3.40;;;2.30;;
7645;SDS011;3864;48.180;14.178;2023-04-24T02:05:29;3.60;;;2.40;;
7645;SDS011;3864;48.180;14.178;2023-04-24T02:10:22;4.72;;;2.35;;
7645;SDS011;3864;48.180;14.178;2023-04-24T02:12:50;3.85;;;2.40;;
7645;SDS011;3864;48.180;14.178;2023-04-24T02:17:45;4.07;;;2.40;;
7645;SDS011;3864;48.180;14.178;2023-04-24T02:20:12;3.97;;;2.17;;
7645;SDS011;3864;48.180;14.178;2023-04-24T02:22:38;3.63;;;2.50;;
7645;SDS011;3864;48.180;14.178;2023-04-24T02:25:06;4.68;;;2.38;;
7645;SDS011;3864;48.180;14.178;2023-04-24T02:27:35;3.85;;;2.40;;
7645;SDS011;3864;48.180;14.178;2023-04-24T02:30:02;4.18;;;2.40;;
7645;SDS011;3864;48.180;14.178;2023-04-24T02:32:29;3.33;;;2.45;;
7645;SDS011;3864;48.180;14.178;2023-04-24T02:34:57;3.45;;;2.30;;
7645;SDS011;3864;48.180;14.178;2023-04-24T02:37:24;3.28;;;2.30;;
7645;SDS011;3864;48.180;14.178;2023-04-24T02:39:51;4.50;;;2.58;;
7645;SDS011;3864;48.180;14.178;2023-04-24T02:42:18;3.70;;;2.60;;
7645;SDS011;3864;48.180;14.178;2023-04-24T02:44:44;3.60;;;2.50;;
7645;SDS011;3864;48.180;14.178;2023-04-24T02:47:11;6.32;;;2.83;;
7645;SDS011;3864;48.180;14.178;2023-04-24T02:52:06;5.03;;;2.67;;
7645;SDS011;3864;48.180;14.178;2023-04-24T02:54:33;5.10;;;2.72;;
7645;SDS011;3864;48.180;14.178;2023-04-24T02:57:00;5.25;;;2.90;;
7645;SDS011;3864;48.180;14.178;2023-04-24T02:59:27;3.88;;;2.78;;
7645;SDS011;3864;48.180;14.178;2023-04-24T03:01:54;4.60;;;2.80;;
7645;SDS011;3864;48.180;14.178;2023-04-24T03:04:21;4.22;;;3.08;;
7645;SDS011;3864;48.180;14.178;2023-04-24T03:06:48;3.85;;;3.08;;
7645;SDS011;3864;48.180;14.178;2023-04-24T03:09:18;5.78;;;3.08;;
7645;SDS011;3864;48.180;14.178;2023-04-24T03:11:45;4.65;;;3.25;;
7645;SDS011;3864;48.180;14.178;2023-04-24T03:14:11;4.78;;;3.10;;
7645;SDS011;3864;48.180;14.178;2023-04-24T03:16:38;5.95;;;2.92;;
7645;SDS011;3864;48.180;14.178;2023-04-24T03:19:05;4.25;;;2.65;;
7645;SDS011;3864;48.180;14.178;2023-04-24T03:21:32;4.57;;;3.00;;
7645;SDS011;3864;48.180;14.178;2023-04-24T03:24:00;5.30;;;3.15;;
7645;SDS011;3864;48.180;14.178;2023-04-24T03:28:55;6.57;;;2.80;;
7645;SDS011;3864;48.180;14.178;2023-04-24T03:31:22;5.07;;;3.00;;
7645;SDS011;3864;48.180;14.178;2023-04-24T03:33:49;4.32;;;3.13;;
7645;SDS011;3864;48.180;14.178;2023-04-24T03:38:44;4.90;;;3.00;;
7645;SDS011;3864;48.180;14.178;2023-04-24T03:41:10;3.72;;;2.80;;
7645;SDS011;3864;48.180;14.178;2023-04-24T03:43:37;7.20;;;3.13;;
7645;SDS011;3864;48.180;14.178;2023-04-24T03:46:05;4.93;;;3.17;;
7645;SDS011;3864;48.180;14.178;2023-04-24T03:48:34;6.32;;;3.40;;
7645;SDS011;3864;48.180;14.178;2023-04-24T03:51:01;4.55;;;3.20;;
7645;SDS011;3864;48.180;14.178;2023-04-24T03:53:28;5.13;;;3.58;;
7645;SDS011;3864;48.180;14.178;2023-04-24T03:55:54;5.47;;;3.17;;
7645;SDS011;3864;48.180;14.178;2023-04-24T03:58:21;5.90;;;3.70;;
7645;SDS011;3864;48.180;14.178;2023-04-24T04:00:48;4.05;;;3.20;;
7645;SDS011;3864;48.180;14.178;2023-04-24T04:03:17;5.63;;;3.13;;
7645;SDS011;3864;48.180;14.178;2023-04-24T04:05:44;4.63;;;3.47;;
7645;SDS011;3864;48.180;14.178;2023-04-24T04:08:19;5.35;;;3.40;;
7645;SDS011;3864;48.180;14.178;2023-04-24T04:11:14;4.72;;;2.92;;
7645;SDS011;3864;48.180;14.178;2023-04-24T04:13:54;4.10;;;2.95;;
7645;SDS011;3864;48.180;14.178;2023-04-24T04:22:39;4.90;;;2.88;;
7645;SDS011;3864;48.180;14.178;2023-04-24T04:25:06;3.83;;;2.65;;
7645;SDS011;3864;48.180;14.178;2023-04-24T04:27:33;5.13;;;2.63;;
7645;SDS011;3864;48.180;14.178;2023-04-24T04:30:00;4.63;;;2.80;;
7645;SDS011;3864;48.180;14.178;2023-04-24T04:32:29;3.90;;;2.53;;
7645;SDS011;3864;48.180;14.178;2023-04-24T04:34:56;5.88;;;2.97;;
7645;SDS011;3864;48.180;14.178;2023-04-24T04:37:28;3.72;;;2.42;;
7645;SDS011;3864;48.180;14.178;2023-04-24T04:52:45;3.00;;;2.17;;
7645;SDS011;3864;48.180;14.178;2023-04-24T04:55:12;3.95;;;2.00;;
7645;SDS011;3864;48.180;14.178;2023-04-24T04:57:39;3.35;;;2.00;;
7645;SDS011;3864;48.180;14.178;2023-04-24T05:00:07;3.70;;;1.83;;
7645;SDS011;3864;48.180;14.178;2023-04-24T05:02:35;3.58;;;2.00;;
7645;SDS011;3864;48.180;14.178;2023-04-24T05:05:02;3.72;;;2.08;;
7645;SDS011;3864;48.180;14.178;2023-04-24T05:07:29;2.60;;;1.70;;
7645;SDS011;3864;48.180;14.178;2023-04-24T05:09:57;3.15;;;1.83;;
7645;SDS011;3864;48.180;14.178;2023-04-24T05:12:24;2.53;;;1.90;;
7645;SDS011;3864;48.180;14.178;2023-04-24T05:14:51;3.33;;;1.90;;
7645;SDS011;3864;48.180;14.178;2023-04-24T05:17:18;3.00;;;2.05;;
7645;SDS011;3864;48.180;14.178;2023-04-24T05:19:45;3.08;;;1.83;;
7645;SDS011;3864;48.180;14.178;2023-04-24T05:22:13;3.30;;;1.65;;
7645;SDS011;3864;48.180;14.178;2023-04-24T05:24:40;3.88;;;1.70;;
7645;SDS011;3864;48.180;14.178;2023-04-24T05:29:35;3.17;;;1.80;;
7645;SDS011;3864;48.180;14.178;2023-04-24T05:32:02;2.88;;;1.98;;
7645;SDS011;3864;48.180;14.178;2023-04-24T05:34:28;3.83;;;2.10;;
7645;SDS011;3864;48.180;14.178;2023-04-24T05:36:55;2.80;;;1.80;;
7645;SDS011;3864;48.180;14.178;2023-04-24T05:39:22;3.08;;;1.70;;
7645;SDS011;3864;48.180;14.178;2023-04-24T05:41:50;2.42;;;1.70;;
7645;SDS011;3864;48.180;14.178;2023-04-24T05:44:17;2.20;;;1.60;;
7645;SDS011;3864;48.180;14.178;2023-04-24T05:49:11;3.33;;;1.70;;
7645;SDS011;3864;48.180;14.178;2023-04-24T05:51:38;2.38;;;1.40;;
7645;SDS011;3864;48.180;14.178;2023-04-24T05:54:06;2.38;;;1.58;;
7645;SDS011;3864;48.180;14.178;2023-04-24T05:56:33;3.15;;;1.75;;
7645;SDS011;3864;48.180;14.178;2023-04-24T05:59:00;2.80;;;1.60;;
7645;SDS011;3864;48.180;14.178;2023-04-24T06:03:53;2.50;;;1.50;;
7645;SDS011;3864;48.180;14.178;2023-04-24T06:08:48;2.50;;;1.73;;
7645;SDS011;3864;48.180;14.178;2023-04-24T06:11:15;2.90;;;1.70;;
7645;SDS011;3864;48.180;14.178;2023-04-24T06:13:42;3.65;;;1.90;;
7645;SDS011;3864;48.180;14.178;2023-04-24T06:16:09;3.17;;;1.90;;
7645;SDS011;3864;48.180;14.178;2023-04-24T06:18:36;3.90;;;2.22;;
7645;SDS011;3864;48.180;14.178;2023-04-24T06:23:30;2.90;;;1.83;;
7645;SDS011;3864;48.180;14.178;2023-04-24T06:25:59;3.90;;;2.30;;
7645;SDS011;3864;48.180;14.178;2023-04-24T06:28:26;4.10;;;2.22;;
7645;SDS011;3864;48.180;14.178;2023-04-24T06:33:19;4.47;;;2.10;;
7645;SDS011;3864;48.180;14.178;2023-04-24T06:38:13;3.97;;;1.90;;
7645;SDS011;3864;48.180;14.178;2023-04-24T06:40:41;4.00;;;1.70;;
7645;SDS011;3864;48.180;14.178;2023-04-24T06:45:36;3.13;;;1.90;;
7645;SDS011;3864;48.180;14.178;2023-04-24T06:48:04;2.75;;;1.65;;
7645;SDS011;3864;48.180;14.178;2023-04-24T06:50:30;4.13;;;1.73;;
7645;SDS011;3864;48.180;14.178;2023-04-24T06:52:57;2.80;;;1.80;;
7645;SDS011;3864;48.180;14.178;2023-04-24T06:55:24;3.40;;;2.00;;
7645;SDS011;3864;48.180;14.178;2023-04-24T06:57:51;3.85;;;1.85;;
7645;SDS011;3864;48.180;14.178;2023-04-24T07:00:18;3.33;;;1.90;;
7645;SDS011;3864;48.180;14.178;2023-04-24T07:02:46;2.97;;;1.90;;
7645;SDS011;3864;48.180;14.178;2023-04-24T07:05:13;3.25;;;1.80;;
7645;SDS011;3864;48.180;14.178;2023-04-24T07:07:40;2.65;;;2.10;;
7645;SDS011;3864;48.180;14.178;2023-04-24T07:10:08;3.45;;;1.98;;
7645;SDS011;3864;48.180;14.178;2023-04-24T07:12:35;3.45;;;1.92;;
7645;SDS011;3864;48.180;14.178;2023-04-24T07:15:02;3.30;;;2.03;;
7645;SDS011;3864;48.180;14.178;2023-04-24T07:17:30;3.20;;;1.92;;
7645;SDS011;3864;48.180;14.178;2023-04-24T07:19:58;3.25;;;1.80;;
7645;SDS011;3864;48.180;14.178;2023-04-24T07:22:25;3.42;;;2.25;;
7645;SDS011;3864;48.180;14.178;2023-04-24T07:24:52;4.25;;;2.35;;
7645;SDS011;3864;48.180;14.178;2023-04-24T07:27:19;3.30;;;2.20;;
7645;SDS011;3864;48.180;14.178;2023-04-24T07:32:12;2.88;;;1.90;;
7645;SDS011;3864;48.180;14.178;2023-04-24T07:34:39;2.95;;;2.10;;
7645;SDS011;3864;48.180;14.178;2023-04-24T07:37:08;3.35;;;2.05;;
7645;SDS011;3864;48.180;14.178;2023-04-24T07:39:34;3.70;;;2.13;;
7645;SDS011;3864;48.180;14.178;2023-04-24T07:44:28;4.35;;;2.55;;
7645;SDS011;3864;48.180;14.178;2023-04-24T07:46:55;3.47;;;2.40;;
7645;SDS011;3864;48.180;14.178;2023-04-24T07:49:22;3.58;;;2.40;;
7645;SDS011;3864;48.180;14.178;2023-04-24T07:51:49;4.95;;;2.38;;
7645;SDS011;3864;48.180;14.178;2023-04-24T07:54:17;4.07;;;2.40;;
7645;SDS011;3864;48.180;14.178;2023-04-24T07:56:44;4.28;;;2.42;;
7645;SDS011;3864;48.180;14.178;2023-04-24T07:59:11;4.55;;;2.60;;
7645;SDS011;3864;48.180;14.178;2023-04-24T08:01:38;4.05;;;2.55;;
7645;SDS011;3864;48.180;14.178;2023-04-24T08:04:05;3.35;;;1.95;;
7645;SDS011;3864;48.180;14.178;2023-04-24T08:06:32;2.83;;;1.83;;
7645;SDS011;3864;48.180;14.178;2023-04-24T08:08:59;4.88;;;2.03;;
7645;SDS011;3864;48.180;14.178;2023-04-24T08:11:27;2.70;;;1.75;;
7645;SDS011;3864;48.180;14.178;2023-04-24T08:13:54;4.40;;;2.08;;
7645;SDS011;3864;48.180;14.178;2023-04-24T08:16:21;3.35;;;1.85;;
7645;SDS011;3864;48.180;14.178;2023-04-24T08:18:48;2.75;;;2.00;;
7645;SDS011;3864;48.180;14.178;2023-04-24T08:21:15;3.55;;;1.80;;
7645;SDS011;3864;48.180;14.178;2023-04-24T08:23:43;2.67;;;1.70;;
7645;SDS011;3864;48.180;14.178;2023-04-24T08:26:10;3.33;;;1.83;;
7645;SDS011;3864;48.180;14.178;2023-04-24T08:28:39;3.95;;;1.85;;
7645;SDS011;3864;48.180;14.178;2023-04-24T08:31:05;3.25;;;1.80;;
7645;SDS011;3864;48.180;14.178;2023-04-24T08:33:32;3.35;;;2.08;;
7645;SDS011;3864;48.180;14.178;2023-04-24T08:36:01;2.28;;;1.73;;
7645;SDS011;3864;48.180;14.178;2023-04-24T08:38:28;2.60;;;1.70;;
7645;SDS011;3864;48.180;14.178;2023-04-24T08:40:55;4.75;;;2.28;;
7645;SDS011;3864;48.180;14.178;2023-04-24T08:43:22;2.97;;;1.60;;
7645;SDS011;3864;48.180;14.178;2023-04-24T08:45:52;2.50;;;1.67;;
7645;SDS011;3864;48.180;14.178;2023-04-24T08:48:19;3.30;;;1.83;;
7645;SDS011;3864;48.180;14.178;2023-04-24T08:50:46;3.53;;;1.80;;
7645;SDS011;3864;48.180;14.178;2023-04-24T08:53:14;4.35;;;2.10;;
7645;SDS011;3864;48.180;14.178;2023-04-24T08:58:08;2.97;;;1.75;;
7645;SDS011;3864;48.180;14.178;2023-04-24T09:00:34;3.33;;;1.80;;
7645;SDS011;3864;48.180;14.178;2023-04-24T09:05:29;3.45;;;1.80;;
7645;SDS011;3864;48.180;14.178;2023-04-24T09:07:56;2.80;;;1.80;;
7645;SDS011;3864;48.180;14.178;2023-04-24T09:10:24;3.00;;;1.80;;
7645;SDS011;3864;48.180;14.178;2023-04-24T09:12:51;3.55;;;1.90;;
7645;SDS011;3864;48.180;14.178;2023-04-24T09:15:19;3.92;;;2.10;;
7645;SDS011;3864;48.180;14.178;2023-04-24T09:17:46;3.63;;;2.05;;
7645;SDS011;3864;48.180;14.178;2023-04-24T09:20:13;3.20;;;1.73;;
7645;SDS011;3864;48.180;14.178;2023-04-24T09:22:42;2.67;;;1.70;;
7645;SDS011;3864;48.180;14.178;2023-04-24T09:25:09;2.47;;;1.80;;
7645;SDS011;3864;48.180;14.178;2023-04-24T09:27:40;3.08;;;1.75;;
7645;SDS011;3864;48.180;14.178;2023-04-24T09:30:08;2.55;;;1.73;;
7645;SDS011;3864;48.180;14.178;2023-04-24T09:32:35;3.15;;;1.67;;
7645;SDS011;3864;48.180;14.178;2023-04-24T09:35:05;3.20;;;1.70;;
7645;SDS011;3864;48.180;14.178;2023-04-24T09:37:34;2.83;;;1.77;;
7645;SDS011;3864;48.180;14.178;2023-04-24T09:40:14;2.50;;;1.80;;
7645;SDS011;3864;48.180;14.178;2023-04-24T09:42:43;3.70;;;1.88;;
7645;SDS011;3864;48.180;14.178;2023-04-24T09:45:10;3.00;;;1.60;;
7645;SDS011;3864;48.180;14.178;2023-04-24T09:47:37;3.10;;;1.80;;
7645;SDS011;3864;48.180;14.178;2023-04-24T09:50:10;3.10;;;1.80;;
7645;SDS011;3864;48.180;14.178;2023-04-24T09:52:44;2.75;;;1.67;;
7645;SDS011;3864;48.180;14.178;2023-04-24T09:55:14;3.55;;;1.77;;
7645;SDS011;3864;48.180;14.178;2023-04-24T09:57:49;2.78;;;1.90;;
7645;SDS011;3864;48.180;14.178;2023-04-24T10:00:23;2.20;;;1.52;;
7645;SDS011;3864;48.180;14.178;2023-04-24T10:02:54;2.65;;;1.77;;
7645;SDS011;3864;48.180;14.178;2023-04-24T10:05:22;2.72;;;1.80;;
7645;SDS011;3864;48.180;14.178;2023-04-24T10:07:50;2.85;;;1.70;;
7645;SDS011;3864;48.180;14.178;2023-04-24T10:10:18;2.85;;;1.70;;
7645;SDS011;3864;48.180;14.178;2023-04-24T10:12:45;4.53;;;2.00;;
7645;SDS011;3864;48.180;14.178;2023-04-24T10:15:12;2.70;;;1.77;;
7645;SDS011;3864;48.180;14.178;2023-04-24T10:17:40;4.05;;;1.80;;
7645;SDS011;3864;48.180;14.178;2023-04-24T10:20:07;2.70;;;1.70;;
7645;SDS011;3864;48.180;14.178;2023-04-24T10:22:35;2.35;;;1.27;;
7645;SDS011;3864;48.180;14.178;2023-04-24T10:25:03;2.75;;;1.50;;
7645;SDS011;3864;48.180;14.178;2023-04-24T10:27:32;2.72;;;1.60;;
7645;SDS011;3864;48.180;14.178;2023-04-24T10:30:01;2.30;;;1.40;;
7645;SDS011;3864;48.180;14.178;2023-04-24T10:32:28;2.50;;;1.60;;
7645;SDS011;3864;48.180;14.178;2023-04-24T10:34:55;2.20;;;1.50;;
7645;SDS011;3864;48.180;14.178;2023-04-24T10:37:22;1.42;;;1.20;;
7645;SDS011;3864;48.180;14.178;2023-04-24T10:39:49;1.63;;;1.25;;
7645;SDS011;3864;48.180;14.178;2023-04-24T10:42:19;1.92;;;1.30;;
7645;SDS011;3864;48.180;14.178;2023-04-24T10:44:48;3.40;;;1.58;;
7645;SDS011;3864;48.180;14.178;2023-04-24T10:47:15;1.85;;;1.20;;
7645;SDS011;3864;48.180;14.178;2023-04-24T10:49:42;1.88;;;1.38;;
7645;SDS011;3864;48.180;14.178;2023-04-24T10:52:09;2.85;;;1.20;;
7645;SDS011;3864;48.180;14.178;2023-04-24T10:54:41;3.15;;;1.25;;
7645;SDS011;3864;48.180;14.178;2023-04-24T10:59:52;1.92;;;1.30;;
7645;SDS011;3864;48.180;14.178;2023-04-24T11:02:36;2.28;;;1.10;;
7645;SDS011;3864;48.180;14.178;2023-04-24T11:05:04;1.92;;;1.27;;
7645;SDS011;3864;48.180;14.178;2023-04-24T11:07:36;2.40;;;1.35;;
7645;SDS011;3864;48.180;14.178;2023-04-24T11:10:26;1.38;;;1.27;;
7645;SDS011;3864;48.180;14.178;2023-04-24T11:12:53;1.58;;;1.30;;
7645;SDS011;3864;48.180;14.178;2023-04-24T11:15:21;3.13;;;1.50;;
7645;SDS011;3864;48.180;14.178;2023-04-24T11:17:48;2.40;;;1.20;;
7645;SDS011;3864;48.180;14.178;2023-04-24T11:20:16;1.60;;;1.50;;
7645;SDS011;3864;48.180;14.178;2023-04-24T11:22:43;2.17;;;1.33;;
7645;SDS011;3864;48.180;14.178;2023-04-24T11:25:10;1.50;;;1.15;;
7645;SDS011;3864;48.180;14.178;2023-04-24T11:27:39;2.33;;;1.30;;
7645;SDS011;3864;48.180;14.178;2023-04-24T11:30:07;1.83;;;1.30;;
7645;SDS011;3864;48.180;14.178;2023-04-24T11:32:37;2.38;;;1.40;;
7645;SDS011;3864;48.180;14.178;2023-04-24T11:35:04;1.30;;;1.20;;
7645;SDS011;3864;48.180;14.178;2023-04-24T11:37:35;1.27;;;1.00;;
7645;SDS011;3864;48.180;14.178;2023-04-24T11:40:03;2.60;;;1.10;;
7645;SDS011;3864;48.180;14.178;2023-04-24T11:42:33;2.22;;;1.00;;
7645;SDS011;3864;48.180;14.178;2023-04-24T11:45:00;1.48;;;1.20;;
7645;SDS011;3864;48.180;14.178;2023-04-24T11:47:27;1.85;;;1.30;;
7645;SDS011;3864;48.180;14.178;2023-04-24T12:09:44;2.15;;;1.20;;
7645;SDS011;3864;48.180;14.178;2023-04-24T12:12:12;2.20;;;1.30;;
7645;SDS011;3864;48.180;14.178;2023-04-24T12:14:47;1.90;;;1.40;;
7645;SDS011;3864;48.180;14.178;2023-04-24T12:17:14;1.40;;;1.08;;
7645;SDS011;3864;48.180;14.178;2023-04-24T12:19:44;1.50;;;1.00;;
7645;SDS011;3864;48.180;14.178;2023-04-24T12:22:11;1.45;;;0.98;;
7645;SDS011;3864;48.180;14.178;2023-04-24T12:27:23;2.33;;;1.52;;
7645;SDS011;3864;48.180;14.178;2023-04-24T12:29:53;1.95;;;1.30;;
7645;SDS011;3864;48.180;14.178;2023-04-24T12:32:22;1.98;;;1.40;;
7645;SDS011;3864;48.180;14.178;2023-04-24T12:35:04;2.25;;;1.50;;
7645;SDS011;3864;48.180;14.178;2023-04-24T12:37:32;1.98;;;1.42;;
7645;SDS011;3864;48.180;14.178;2023-04-24T12:40:02;3.22;;;1.50;;
7645;SDS011;3864;48.180;14.178;2023-04-24T12:42:31;3.67;;;1.75;;
7645;SDS011;3864;48.180;14.178;2023-04-24T12:44:59;3.17;;;2.10;;
7645;SDS011;3864;48.180;14.178;2023-04-24T12:47:26;4.85;;;1.90;;
7645;SDS011;3864;48.180;14.178;2023-04-24T12:49:53;3.13;;;1.73;;
7645;SDS011;3864;48.180;14.178;2023-04-24T12:52:20;5.72;;;1.90;;
7645;SDS011;3864;48.180;14.178;2023-04-24T12:54:47;3.22;;;1.90;;
7645;SDS011;3864;48.180;14.178;2023-04-24T12:57:14;2.90;;;1.90;;
7645;SDS011;3864;48.180;14.178;2023-04-24T12:59:42;3.45;;;1.90;;
7645;SDS011;3864;48.180;14.178;2023-04-24T13:02:09;4.85;;;1.95;;
7645;SDS011;3864;48.180;14.178;2023-04-24T13:04:36;3.70;;;1.88;;
7645;SDS011;3864;48.180;14.178;2023-04-24T13:07:03;2.90;;;1.80;;
7645;SDS011;3864;48.180;14.178;2023-04-24T13:09:30;2.85;;;1.80;;
7645;SDS011;3864;48.180;14.178;2023-04-24T13:11:57;3.33;;;1.80;;
7645;SDS011;3864;48.180;14.178;2023-04-24T13:14:23;2.92;;;1.77;;
7645;SDS011;3864;48.180;14.178;2023-04-24T13:16:52;3.22;;;1.70;;
7645;SDS011;3864;48.180;14.178;2023-04-24T13:19:19;2.40;;;1.88;;
7645;SDS011;3864;48.180;14.178;2023-04-24T13:21:45;2.78;;;1.60;;
7645;SDS011;3864;48.180;14.178;2023-04-24T13:24:12;3.35;;;1.90;;
7645;SDS011;3864;48.180;14.178;2023-04-24T13:26:41;2.75;;;1.80;;
7645;SDS011;3864;48.180;14.178;2023-04-24T13:29:07;3.88;;;1.90;;
7645;SDS011;3864;48.180;14.178;2023-04-24T13:31:34;5.10;;;2.15;;
7645;SDS011;3864;48.180;14.178;2023-04-24T13:34:03;3.80;;;1.83;;
7645;SDS011;3864;48.180;14.178;2023-04-24T13:36:30;2.67;;;1.90;;
7645;SDS011;3864;48.180;14.178;2023-04-24T13:38:57;3.03;;;2.00;;
7645;SDS011;3864;48.180;14.178;2023-04-24T13:41:24;4.68;;;2.00;;
7645;SDS011;3864;48.180;14.178;2023-04-24T13:46:17;2.67;;;1.88;;
7645;SDS011;3864;48.180;14.178;2023-04-24T13:48:44;3.92;;;2.10;;
7645;SDS011;3864;48.180;14.178;2023-04-24T13:51:12;3.15;;;1.98;;
7645;SDS011;3864;48.180;14.178;2023-04-24T13:53:39;3.38;;;1.88;;
7645;SDS011;3864;48.180;14.178;2023-04-24T13:56:05;3.97;;;1.80;;
7645;SDS011;3864;48.180;14.178;2023-04-24T13:58:33;2.67;;;1.70;;
7645;SDS011;3864;48.180;14.178;2023-04-24T14:01:01;3.00;;;1.80;;
7645;SDS011;3864;48.180;14.178;2023-04-24T14:03:28;2.50;;;1.80;;
7645;SDS011;3864;48.180;14.178;2023-04-24T14:05:55;3.63;;;2.13;;
7645;SDS011;3864;48.180;14.178;2023-04-24T14:08:24;3.28;;;2.00;;
7645;SDS011;3864;48.180;14.178;2023-04-24T14:10:51;2.40;;;1.63;;
7645;SDS011;3864;48.180;14.178;2023-04-24T14:13:18;2.40;;;1.65;;
7645;SDS011;3864;48.180;14.178;2023-04-24T14:15:44;2.78;;;1.90;;
7645;SDS011;3864;48.180;14.178;2023-04-24T14:18:11;3.45;;;2.20;;
7645;SDS011;3864;48.180;14.178;2023-04-24T14:20:38;3.35;;;2.00;;
7645;SDS011;3864;48.180;14.178;2023-04-24T14:23:05;3.13;;;2.05;;
7645;SDS011;3864;48.180;14.178;2023-04-24T14:25:33;3.22;;;1.90;;
7645;SDS011;3864;48.180;14.178;2023-04-24T14:28:00;2.50;;;1.73;;
7645;SDS011;3864;48.180;14.178;2023-04-24T14:30:27;2.95;;;2.00;;
7645;SDS011;3864;48.180;14.178;2023-04-24T14:32:54;3.33;;;1.90;;
7645;SDS011;3864;48.180;14.178;2023-04-24T14:35:21;2.80;;;2.03;;
7645;SDS011;3864;48.180;14.178;2023-04-24T14:37:48;4.18;;;2.10;;
7645;SDS011;3864;48.180;14.178;2023-04-24T14:42:42;3.63;;;2.10;;
7645;SDS011;3864;48.180;14.178;2023-04-24T14:45:11;4.15;;;2.17;;
7645;SDS011;3864;48.180;14.178;2023-04-24T14:47:38;3.15;;;2.00;;
7645;SDS011;3864;48.180;14.178;2023-04-24T14:50:05;2.70;;;1.90;;
7645;SDS011;3864;48.180;14.178;2023-04-24T14:52:33;3.65;;;2.10;;
7645;SDS011;3864;48.180;14.178;2023-04-24T14:54:59;4.15;;;2.00;;
7645;SDS011;3864;48.180;14.178;2023-04-24T14:57:27;3.58;;;2.15;;
7645;SDS011;3864;48.180;14.178;2023-04-24T15:02:22;3.10;;;2.00;;
7645;SDS011;3864;48.180;14.178;2023-04-24T15:04:48;2.70;;;1.77;;
7645;SDS011;3864;48.180;14.178;2023-04-24T15:07:15;2.67;;;2.10;;
7645;SDS011;3864;48.180;14.178;2023-04-24T15:09:42;2.70;;;1.70;;
7645;SDS011;3864;48.180;14.178;2023-04-24T15:12:26;3.28;;;1.98;;
7645;SDS011;3864;48.180;14.178;2023-04-24T15:14:53;2.90;;;2.00;;
7645;SDS011;3864;48.180;14.178;2023-04-24T15:17:23;2.97;;;1.90;;
7645;SDS011;3864;48.180;14.178;2023-04-24T15:19:50;4.70;;;1.98;;
7645;SDS011;3864;48.180;14.178;2023-04-24T15:22:17;3.45;;;2.00;;
7645;SDS011;3864;48.180;14.178;2023-04-24T15:24:44;2.88;;;2.20;;
7645;SDS011;3864;48.180;14.178;2023-04-24T15:27:12;4.72;;;2.13;;
7645;SDS011;3864;48.180;14.178;2023-04-24T15:29:39;3.45;;;2.15;;
7645;SDS011;3864;48.180;14.178;2023-04-24T15:32:06;2.80;;;1.90;;
7645;SDS011;3864;48.180;14.178;2023-04-24T15:37:01;3.33;;;1.95;;
7645;SDS011;3864;48.180;14.178;2023-04-24T15:39:28;3.78;;;2.20;;
7645;SDS011;3864;48.180;14.178;2023-04-24T15:41:55;3.05;;;2.00;;
7645;SDS011;3864;48.180;14.178;2023-04-24T15:44:22;4.18;;;1.90;;
7645;SDS011;3864;48.180;14.178;2023-04-24T15:46:49;3.28;;;2.00;;
7645;SDS011;3864;48.180;14.178;2023-04-24T15:49:16;4.13;;;2.03;;
7645;SDS011;3864;48.180;14.178;2023-04-24T15:51:43;3.67;;;1.90;;
7645;SDS011;3864;48.180;14.178;2023-04-24T15:54:12;3.05;;;1.90;;
7645;SDS011;3864;48.180;14.178;2023-04-24T15:56:38;3.00;;;2.15;;
7645;SDS011;3864;48.180;14.178;2023-04-24T15:59:05;2.60;;;1.90;;
7645;SDS011;3864;48.180;14.178;2023-04-24T16:01:32;2.92;;;2.10;;
7645;SDS011;3864;48.180;14.178;2023-04-24T16:03:59;3.20;;;2.00;;
7645;SDS011;3864;48.180;14.178;2023-04-24T16:06:26;3.88;;;1.98;;
7645;SDS011;3864;48.180;14.178;2023-04-24T16:08:53;4.60;;;2.10;;
7645;SDS011;3864;48.180;14.178;2023-04-24T16:11:21;3.28;;;2.03;;
7645;SDS011;3864;48.180;14.178;2023-04-24T16:13:48;3.53;;;1.90;;
7645;SDS011;3864;48.180;14.178;2023-04-24T16:16:15;2.97;;;1.70;;
7645;SDS011;3864;48.180;14.178;2023-04-24T16:18:42;2.85;;;2.10;;
7645;SDS011;3864;48.180;14.178;2023-04-24T16:21:09;3.20;;;1.73;;
7645;SDS011;3864;48.180;14.178;2023-04-24T16:23:35;2.50;;;1.80;;
7645;SDS011;3864;48.180;14.178;2023-04-24T16:26:02;3.15;;;1.98;;
7645;SDS011;3864;48.180;14.178;2023-04-24T16:28:31;2.60;;;1.70;;
7645;SDS011;3864;48.180;14.178;2023-04-24T16:30:58;2.63;;;1.67;;
7645;SDS011;3864;48.180;14.178;2023-04-24T16:33:25;2.85;;;1.67;;
7645;SDS011;3864;48.180;14.178;2023-04-24T16:35:51;3.05;;;1.60;;
7645;SDS011;3864;48.180;14.178;2023-04-24T16:38:18;3.47;;;1.80;;
7645;SDS011;3864;48.180;14.178;2023-04-24T16:40:45;2.95;;;1.73;;
7645;SDS011;3864;48.180;14.178;2023-04-24T16:43:12;2.83;;;1.80;;